sensor_id;sensor_type;location;lat;lon;timestamp;pressure;altitude;pressure_sealevel;temperature;humidity
52591;BME280;38483;42.620;25.394;2022-12-10T00:01:16;96586.66;;;6.46;97.22
52591;BME280;38483;42.620;25.394;2022-12-10T00:03:44;96584.06;;;6.46;97.71
52591;BME280;38483;42.620;25.394;2022-12-10T00:06:15;96571.69;;;6.34;97.76
52591;BME280;38483;42.620;25.394;2022-12-10T00:08:42;96568.59;;;6.25;97.20
52591;BME280;38483;42.620;25.394;2022-12-10T00:11:12;96565.38;;;6.18;97.38
52591;BME280;38483;42.620;25.394;2022-12-10T00:13:40;96560.59;;;6.09;98.86
52591;BME280;38483;42.620;25.394;2022-12-10T00:16:09;96571.28;;;6.22;98.33
52591;BME280;38483;42.620;25.394;2022-12-10T00:18:37;96565.19;;;6.24;97.26
52591;BME280;38483;42.620;25.394;2022-12-10T00:21:10;96572.22;;;6.42;97.30
52591;BME280;38483;42.620;25.394;2022-12-10T00:23:38;96564.00;;;6.56;97.04
52591;BME280;38483;42.620;25.394;2022-12-10T00:26:14;96543.81;;;6.45;96.22
52591;BME280;38483;42.620;25.394;2022-12-10T00:28:43;96567.06;;;6.66;96.30
52591;BME280;38483;42.620;25.394;2022-12-10T00:31:13;96566.69;;;6.53;96.59
52591;BME280;38483;42.620;25.394;2022-12-10T00:33:41;96561.97;;;6.41;95.67
52591;BME280;38483;42.620;25.394;2022-12-10T00:36:17;96565.47;;;6.40;96.44
52591;BME280;38483;42.620;25.394;2022-12-10T00:38:45;96562.03;;;6.63;96.59
52591;BME280;38483;42.620;25.394;2022-12-10T00:41:13;96556.19;;;6.57;96.93
52591;BME280;38483;42.620;25.394;2022-12-10T00:43:41;96567.06;;;6.66;95.95
52591;BME280;38483;42.620;25.394;2022-12-10T00:46:11;96567.84;;;6.68;95.76
52591;BME280;38483;42.620;25.394;2022-12-10T00:48:40;96574.09;;;6.61;95.73
52591;BME280;38483;42.620;25.394;2022-12-10T00:51:12;96566.50;;;6.57;96.60
52591;BME280;38483;42.620;25.394;2022-12-10T00:53:42;96562.34;;;6.53;96.26
52591;BME280;38483;42.620;25.394;2022-12-10T00:56:11;96548.56;;;6.56;96.28
52591;BME280;38483;42.620;25.394;2022-12-10T00:58:38;96537.09;;;6.41;95.36
52591;BME280;38483;42.620;25.394;2022-12-10T01:01:12;96565.72;;;6.55;95.73
52591;BME280;38483;42.620;25.394;2022-12-10T01:03:40;96563.13;;;6.55;96.64
52591;BME280;38483;42.620;25.394;2022-12-10T01:06:22;96558.09;;;6.76;96.27
52591;BME280;38483;42.620;25.394;2022-12-10T01:08:50;96554.75;;;6.74;94.92
52591;BME280;38483;42.620;25.394;2022-12-10T01:11:19;96566.47;;;6.59;95.40
52591;BME280;38483;42.620;25.394;2022-12-10T01:13:47;96548.63;;;6.54;96.70
52591;BME280;38483;42.620;25.394;2022-12-10T01:16:17;96561.88;;;6.44;96.15
52591;BME280;38483;42.620;25.394;2022-12-10T01:18:44;96549.19;;;6.39;96.73
52591;BME280;38483;42.620;25.394;2022-12-10T01:21:17;96552.31;;;6.47;97.21
52591;BME280;38483;42.620;25.394;2022-12-10T01:23:46;96551.66;;;6.42;96.56
52591;BME280;38483;42.620;25.394;2022-12-10T01:26:16;96532.56;;;6.26;97.30
52591;BME280;38483;42.620;25.394;2022-12-10T01:28:44;96544.03;;;6.39;97.39
52591;BME280;38483;42.620;25.394;2022-12-10T01:31:15;96545.19;;;6.32;96.79
52591;BME280;38483;42.620;25.394;2022-12-10T01:33:43;96542.66;;;6.31;97.54
52591;BME280;38483;42.620;25.394;2022-12-10T01:36:13;96542.78;;;6.28;97.48
52591;BME280;38483;42.620;25.394;2022-12-10T01:38:42;96531.53;;;6.07;97.38
52591;BME280;38483;42.620;25.394;2022-12-10T01:41:18;96500.97;;;6.00;98.33
52591;BME280;38483;42.620;25.394;2022-12-10T01:46:30;96529.13;;;6.03;97.74
52591;BME280;38483;42.620;25.394;2022-12-10T01:48:59;96528.56;;;5.95;97.23
52591;BME280;38483;42.620;25.394;2022-12-10T01:51:29;96542.47;;;6.12;97.71
52591;BME280;38483;42.620;25.394;2022-12-10T01:53:58;96544.50;;;6.27;98.42
52591;BME280;38483;42.620;25.394;2022-12-10T01:56:25;96532.56;;;6.26;96.99
52591;BME280;38483;42.620;25.394;2022-12-10T01:58:54;96547.97;;;6.26;96.93
52591;BME280;38483;42.620;25.394;2022-12-10T02:04:21;96533.50;;;6.01;97.42
52591;BME280;38483;42.620;25.394;2022-12-10T02:07:23;96527.84;;;5.91;98.01
52591;BME280;38483;42.620;25.394;2022-12-10T02:09:50;96530.66;;;5.85;97.68
52591;BME280;38483;42.620;25.394;2022-12-10T02:12:24;96529.81;;;5.85;98.01
52591;BME280;38483;42.620;25.394;2022-12-10T02:15:00;96526.56;;;5.78;98.25
52591;BME280;38483;42.620;25.394;2022-12-10T02:17:41;96520.38;;;5.59;99.93
52591;BME280;38483;42.620;25.394;2022-12-10T02:22:49;96523.22;;;5.76;100.00
52591;BME280;38483;42.620;25.394;2022-12-10T02:25:21;96511.09;;;6.04;100.00
52591;BME280;38483;42.620;25.394;2022-12-10T02:28:10;96517.47;;;6.17;99.86
52591;BME280;38483;42.620;25.394;2022-12-10T02:30:41;96506.47;;;6.35;98.99
52591;BME280;38483;42.620;25.394;2022-12-10T02:33:09;96505.13;;;6.48;97.97
52591;BME280;38483;42.620;25.394;2022-12-10T02:35:40;96494.28;;;6.62;97.29
52591;BME280;38483;42.620;25.394;2022-12-10T02:38:17;96495.50;;;6.75;97.03
52591;BME280;38483;42.620;25.394;2022-12-10T02:40:49;96476.56;;;6.76;96.56
52591;BME280;38483;42.620;25.394;2022-12-10T02:43:19;96486.09;;;6.96;95.89
52591;BME280;38483;42.620;25.394;2022-12-10T02:45:50;96493.56;;;7.02;94.85
52591;BME280;38483;42.620;25.394;2022-12-10T02:48:19;96498.13;;;7.15;94.04
52591;BME280;38483;42.620;25.394;2022-12-10T02:50:46;96472.78;;;7.06;94.42
52591;BME280;38483;42.620;25.394;2022-12-10T02:53:13;96491.25;;;7.16;94.49
52591;BME280;38483;42.620;25.394;2022-12-10T02:55:56;96483.16;;;7.25;93.81
52591;BME280;38483;42.620;25.394;2022-12-10T02:59:06;96494.59;;;7.18;94.05
52591;BME280;38483;42.620;25.394;2022-12-10T03:04:58;96484.22;;;7.19;94.27
52591;BME280;38483;42.620;25.394;2022-12-10T03:07:43;96443.81;;;7.01;94.04
52591;BME280;38483;42.620;25.394;2022-12-10T03:12:51;96483.38;;;6.99;92.81
52591;BME280;38483;42.620;25.394;2022-12-10T03:15:22;96464.53;;;6.98;93.59
52591;BME280;38483;42.620;25.394;2022-12-10T03:17:51;96461.88;;;6.80;93.10
52591;BME280;38483;42.620;25.394;2022-12-10T03:20:22;96466.09;;;6.81;94.36
52591;BME280;38483;42.620;25.394;2022-12-10T03:22:50;96478.78;;;6.85;93.94
52591;BME280;38483;42.620;25.394;2022-12-10T03:25:23;96464.47;;;6.78;93.76
52591;BME280;38483;42.620;25.394;2022-12-10T03:27:54;96476.75;;;6.93;93.43
52591;BME280;38483;42.620;25.394;2022-12-10T03:30:22;96472.50;;;6.92;93.21
52591;BME280;38483;42.620;25.394;2022-12-10T03:32:49;96458.56;;;6.76;93.51
52591;BME280;38483;42.620;25.394;2022-12-10T03:35:19;96479.47;;;6.69;93.06
52591;BME280;38483;42.620;25.394;2022-12-10T03:37:46;96483.75;;;6.68;94.19
52591;BME280;38483;42.620;25.394;2022-12-10T03:40:18;96478.75;;;6.65;93.30
52591;BME280;38483;42.620;25.394;2022-12-10T03:42:47;96465.72;;;6.70;93.84
52591;BME280;38483;42.620;25.394;2022-12-10T03:45:14;96467.28;;;6.74;92.93
52591;BME280;38483;42.620;25.394;2022-12-10T03:47:41;96465.16;;;6.62;93.29
52591;BME280;38483;42.620;25.394;2022-12-10T03:50:09;96462.81;;;6.55;93.54
52591;BME280;38483;42.620;25.394;2022-12-10T03:52:37;96453.13;;;6.62;94.54
52591;BME280;38483;42.620;25.394;2022-12-10T03:58:46;96471.06;;;6.85;93.13
52591;BME280;38483;42.620;25.394;2022-12-10T04:01:14;96459.44;;;6.97;93.26
52591;BME280;38483;42.620;25.394;2022-12-10T04:03:42;96463.63;;;6.99;92.95
52591;BME280;38483;42.620;25.394;2022-12-10T04:06:16;96461.22;;;6.95;93.45
52591;BME280;38483;42.620;25.394;2022-12-10T04:08:43;96456.91;;;7.17;93.06
52591;BME280;38483;42.620;25.394;2022-12-10T04:11:12;96457.00;;;7.14;92.14
52591;BME280;38483;42.620;25.394;2022-12-10T04:13:39;96452.78;;;7.13;93.02
52591;BME280;38483;42.620;25.394;2022-12-10T04:16:25;96452.25;;;7.25;92.08
52591;BME280;38483;42.620;25.394;2022-12-10T04:19:02;96444.28;;;7.31;92.08
52591;BME280;38483;42.620;25.394;2022-12-10T04:21:31;96453.16;;;7.24;91.49
52591;BME280;38483;42.620;25.394;2022-12-10T04:24:20;96459.84;;;7.28;91.29
52591;BME280;38483;42.620;25.394;2022-12-10T04:27:21;96462.13;;;7.35;92.11
52591;BME280;38483;42.620;25.394;2022-12-10T04:29:49;96452.19;;;7.26;91.17
52591;BME280;38483;42.620;25.394;2022-12-10T04:32:17;96460.78;;;7.25;91.92
52591;BME280;38483;42.620;25.394;2022-12-10T04:34:44;96448.50;;;7.32;92.71
52591;BME280;38483;42.620;25.394;2022-12-10T04:37:14;96453.16;;;7.24;92.17
52591;BME280;38483;42.620;25.394;2022-12-10T04:39:41;96422.19;;;7.05;92.37
52591;BME280;38483;42.620;25.394;2022-12-10T04:42:08;96450.50;;;7.25;92.30
52591;BME280;38483;42.620;25.394;2022-12-10T04:44:35;96445.69;;;7.18;92.74
52591;BME280;38483;42.620;25.394;2022-12-10T04:47:04;96448.25;;;7.18;93.26
52591;BME280;38483;42.620;25.394;2022-12-10T04:49:31;96446.88;;;7.29;93.25
52591;BME280;38483;42.620;25.394;2022-12-10T04:51:58;96446.00;;;7.30;92.91
52591;BME280;38483;42.620;25.394;2022-12-10T04:54:26;96435.50;;;7.35;92.41
52591;BME280;38483;42.620;25.394;2022-12-10T04:56:53;96423.25;;;7.40;92.27
52591;BME280;38483;42.620;25.394;2022-12-10T04:59:20;96443.41;;;7.51;91.56
52591;BME280;38483;42.620;25.394;2022-12-10T05:01:47;96434.34;;;7.42;92.07
52591;BME280;38483;42.620;25.394;2022-12-10T05:04:16;96448.38;;;7.55;92.19
52591;BME280;38483;42.620;25.394;2022-12-10T05:06:45;96434.22;;;7.45;92.30
52591;BME280;38483;42.620;25.394;2022-12-10T05:09:13;96454.56;;;7.51;91.58
52591;BME280;38483;42.620;25.394;2022-12-10T05:11:41;96455.41;;;7.52;93.07
52591;BME280;38483;42.620;25.394;2022-12-10T05:14:10;96426.34;;;7.48;92.60
52591;BME280;38483;42.620;25.394;2022-12-10T05:16:37;96436.41;;;7.54;92.55
52591;BME280;38483;42.620;25.394;2022-12-10T05:19:04;96438.06;;;7.55;92.43
52591;BME280;38483;42.620;25.394;2022-12-10T05:21:31;96430.97;;;7.60;92.16
52591;BME280;38483;42.620;25.394;2022-12-10T05:24:18;96435.91;;;7.65;92.02
52591;BME280;38483;42.620;25.394;2022-12-10T05:26:45;96436.19;;;7.59;92.58
52591;BME280;38483;42.620;25.394;2022-12-10T05:29:13;96442.53;;;7.52;92.50
52591;BME280;38483;42.620;25.394;2022-12-10T05:31:40;96413.09;;;7.37;92.50
52591;BME280;38483;42.620;25.394;2022-12-10T05:34:09;96449.97;;;7.58;92.33
52591;BME280;38483;42.620;25.394;2022-12-10T05:36:37;96456.03;;;7.57;92.42
52591;BME280;38483;42.620;25.394;2022-12-10T05:39:04;96463.06;;;7.53;92.00
52591;BME280;38483;42.620;25.394;2022-12-10T05:41:34;96460.47;;;7.53;92.49
52591;BME280;38483;42.620;25.394;2022-12-10T05:44:02;96463.44;;;7.44;93.05
52591;BME280;38483;42.620;25.394;2022-12-10T05:46:31;96448.25;;;7.58;92.25
52591;BME280;38483;42.620;25.394;2022-12-10T05:48:59;96441.28;;;7.60;92.88
52591;BME280;38483;42.620;25.394;2022-12-10T05:51:29;96442.81;;;7.64;91.90
52591;BME280;38483;42.620;25.394;2022-12-10T05:53:58;96404.25;;;7.43;92.20
52591;BME280;38483;42.620;25.394;2022-12-10T05:56:25;96446.44;;;7.60;91.95
52591;BME280;38483;42.620;25.394;2022-12-10T05:58:56;96457.50;;;7.62;92.07
52591;BME280;38483;42.620;25.394;2022-12-10T06:01:25;96445.59;;;7.60;92.11
52591;BME280;38483;42.620;25.394;2022-12-10T06:03:53;96432.91;;;7.55;92.24
52591;BME280;38483;42.620;25.394;2022-12-10T06:06:26;96434.25;;;7.64;92.31
52591;BME280;38483;42.620;25.394;2022-12-10T06:08:54;96435.91;;;7.65;91.96
52591;BME280;38483;42.620;25.394;2022-12-10T06:11:21;96439.22;;;7.68;92.20
52591;BME280;38483;42.620;25.394;2022-12-10T06:13:48;96416.03;;;7.48;92.53
52591;BME280;38483;42.620;25.394;2022-12-10T06:16:22;96442.31;;;7.56;92.81
52591;BME280;38483;42.620;25.394;2022-12-10T06:18:50;96439.81;;;7.73;93.29
52591;BME280;38483;42.620;25.394;2022-12-10T06:21:17;96441.59;;;7.73;92.28
52591;BME280;38483;42.620;25.394;2022-12-10T06:23:46;96443.81;;;7.80;92.50
52591;BME280;38483;42.620;25.394;2022-12-10T06:26:18;96452.13;;;7.87;92.47
52591;BME280;38483;42.620;25.394;2022-12-10T06:28:47;96431.97;;;7.76;91.71
52591;BME280;38483;42.620;25.394;2022-12-10T06:31:14;96440.31;;;7.81;92.11
52591;BME280;38483;42.620;25.394;2022-12-10T06:33:42;96436.97;;;7.79;92.62
52591;BME280;38483;42.620;25.394;2022-12-10T06:36:11;96441.50;;;7.74;93.21
52591;BME280;38483;42.620;25.394;2022-12-10T06:38:39;96441.94;;;7.84;93.71
52591;BME280;38483;42.620;25.394;2022-12-10T06:41:08;96433.78;;;7.74;93.62
52591;BME280;38483;42.620;25.394;2022-12-10T06:43:36;96429.47;;;7.75;93.46
52591;BME280;38483;42.620;25.394;2022-12-10T06:46:11;96428.47;;;7.77;94.21
52591;BME280;38483;42.620;25.394;2022-12-10T06:48:38;96432.53;;;7.83;94.02
52591;BME280;38483;42.620;25.394;2022-12-10T06:51:06;96433.34;;;7.83;94.58
52591;BME280;38483;42.620;25.394;2022-12-10T06:53:35;96428.63;;;7.93;93.71
52591;BME280;38483;42.620;25.394;2022-12-10T06:56:03;96430.50;;;7.89;94.01
52591;BME280;38483;42.620;25.394;2022-12-10T06:58:31;96423.31;;;7.96;94.73
52591;BME280;38483;42.620;25.394;2022-12-10T07:01:19;96423.47;;;7.93;94.49
52591;BME280;38483;42.620;25.394;2022-12-10T07:03:53;96419.22;;;7.92;93.88
52591;BME280;38483;42.620;25.394;2022-12-10T07:06:22;96424.19;;;7.96;94.55
52591;BME280;38483;42.620;25.394;2022-12-10T07:08:50;96420.81;;;7.94;94.79
52591;BME280;38483;42.620;25.394;2022-12-10T07:11:19;96432.53;;;8.20;94.30
52591;BME280;38483;42.620;25.394;2022-12-10T07:13:47;96420.41;;;8.22;93.51
52591;BME280;38483;42.620;25.394;2022-12-10T07:16:25;96427.13;;;8.26;94.61
52591;BME280;38483;42.620;25.394;2022-12-10T07:18:54;96428.94;;;8.43;93.61
52591;BME280;38483;42.620;25.394;2022-12-10T07:23:52;96442.59;;;8.62;93.10
52591;BME280;38483;42.620;25.394;2022-12-10T07:26:21;96421.09;;;8.44;93.27
52591;BME280;38483;42.620;25.394;2022-12-10T07:28:48;96439.13;;;8.63;93.57
52591;BME280;38483;42.620;25.394;2022-12-10T07:31:20;96427.06;;;8.63;93.31
52591;BME280;38483;42.620;25.394;2022-12-10T07:33:48;96415.75;;;8.66;92.88
52591;BME280;38483;42.620;25.394;2022-12-10T07:36:15;96418.88;;;8.72;93.17
52591;BME280;38483;42.620;25.394;2022-12-10T07:38:43;96414.84;;;8.67;93.17
52591;BME280;38483;42.620;25.394;2022-12-10T07:41:12;96411.44;;;8.66;93.57
52591;BME280;38483;42.620;25.394;2022-12-10T07:43:42;96419.19;;;8.83;93.71
52591;BME280;38483;42.620;25.394;2022-12-10T07:46:15;96418.69;;;8.94;93.10
52591;BME280;38483;42.620;25.394;2022-12-10T07:48:44;96413.06;;;8.86;94.03
52591;BME280;38483;42.620;25.394;2022-12-10T07:51:12;96415.16;;;8.95;93.97
52591;BME280;38483;42.620;25.394;2022-12-10T07:53:39;96413.25;;;8.98;94.08
52591;BME280;38483;42.620;25.394;2022-12-10T07:56:06;96406.00;;;9.07;93.78
52591;BME280;38483;42.620;25.394;2022-12-10T07:58:36;96397.22;;;9.09;93.27
52591;BME280;38483;42.620;25.394;2022-12-10T08:01:07;96406.19;;;9.19;92.93
52591;BME280;38483;42.620;25.394;2022-12-10T08:03:35;96418.66;;;9.28;93.14
52591;BME280;38483;42.620;25.394;2022-12-10T08:06:08;96399.91;;;9.25;93.03
52591;BME280;38483;42.620;25.394;2022-12-10T08:08:36;96413.63;;;9.42;93.13
52591;BME280;38483;42.620;25.394;2022-12-10T08:11:04;96413.16;;;9.51;92.82
52591;BME280;38483;42.620;25.394;2022-12-10T08:13:32;96409.16;;;9.61;92.69
52591;BME280;38483;42.620;25.394;2022-12-10T08:16:12;96403.44;;;9.72;92.23
52591;BME280;38483;42.620;25.394;2022-12-10T08:18:40;96402.59;;;9.71;91.94
52591;BME280;38483;42.620;25.394;2022-12-10T08:21:10;96400.03;;;9.87;91.88
52591;BME280;38483;42.620;25.394;2022-12-10T08:23:38;96401.91;;;10.01;91.86
52591;BME280;38483;42.620;25.394;2022-12-10T08:26:06;96388.88;;;10.02;91.12
52591;BME280;38483;42.620;25.394;2022-12-10T08:28:34;96388.41;;;10.11;91.17
52591;BME280;38483;42.620;25.394;2022-12-10T08:31:03;96398.97;;;10.07;90.97
52591;BME280;38483;42.620;25.394;2022-12-10T08:33:33;96410.28;;;10.21;91.40
52591;BME280;38483;42.620;25.394;2022-12-10T08:36:03;96407.19;;;10.15;91.43
52591;BME280;38483;42.620;25.394;2022-12-10T08:38:31;96398.91;;;10.39;91.05
52591;BME280;38483;42.620;25.394;2022-12-10T08:40:58;96386.72;;;10.57;90.19
52591;BME280;38483;42.620;25.394;2022-12-10T08:43:25;96402.25;;;10.57;90.38
52591;BME280;38483;42.620;25.394;2022-12-10T08:45:52;96388.97;;;10.63;89.99
52591;BME280;38483;42.620;25.394;2022-12-10T08:48:21;96379.31;;;10.81;89.99
52591;BME280;38483;42.620;25.394;2022-12-10T08:50:48;96376.09;;;10.91;89.96
52591;BME280;38483;42.620;25.394;2022-12-10T08:53:15;96370.56;;;10.97;89.83
52591;BME280;38483;42.620;25.394;2022-12-10T08:55:43;96364.91;;;11.34;89.59
52591;BME280;38483;42.620;25.394;2022-12-10T08:58:14;96349.06;;;11.25;88.87
52591;BME280;38483;42.620;25.394;2022-12-10T09:00:41;96365.00;;;11.47;88.60
52591;BME280;38483;42.620;25.394;2022-12-10T09:03:28;96357.59;;;11.55;88.26
52591;BME280;38483;42.620;25.394;2022-12-10T09:06:50;96363.38;;;11.74;88.25
52591;BME280;38483;42.620;25.394;2022-12-10T09:10:11;96357.78;;;11.94;86.81
52591;BME280;38483;42.620;25.394;2022-12-10T09:13:31;96347.13;;;11.99;86.79
52591;BME280;38483;42.620;25.394;2022-12-10T09:16:52;96332.75;;;11.93;86.37
52591;BME280;38483;42.620;25.394;2022-12-10T09:20:12;96343.41;;;12.03;85.63
52591;BME280;38483;42.620;25.394;2022-12-10T09:23:33;96345.75;;;12.20;85.97
52591;BME280;38483;42.620;25.394;2022-12-10T09:26:54;96341.69;;;12.16;86.03
52591;BME280;38483;42.620;25.394;2022-12-10T09:30:14;96298.47;;;12.29;85.07
52591;BME280;38483;42.620;25.394;2022-12-10T09:33:35;96305.31;;;12.30;85.37
52591;BME280;38483;42.620;25.394;2022-12-10T09:36:55;96258.88;;;12.25;84.94
52591;BME280;38483;42.620;25.394;2022-12-10T09:40:16;96302.19;;;12.64;84.61
52591;BME280;38483;42.620;25.394;2022-12-10T09:52:32;96280.75;;;13.00;83.83
52591;BME280;38483;42.620;25.394;2022-12-10T09:55:51;96281.66;;;12.99;84.06
52591;BME280;38483;42.620;25.394;2022-12-10T09:59:19;96266.81;;;13.26;83.77
52591;BME280;38483;42.620;25.394;2022-12-10T10:02:25;96256.59;;;13.36;83.18
52591;BME280;38483;42.620;25.394;2022-12-10T10:05:48;96253.88;;;13.50;83.24
52591;BME280;38483;42.620;25.394;2022-12-10T10:09:06;96224.69;;;13.21;82.27
52591;BME280;38483;42.620;25.394;2022-12-10T10:12:33;96252.53;;;13.57;81.89
52591;BME280;38483;42.620;25.394;2022-12-10T10:15:55;96247.63;;;13.65;82.09
52591;BME280;38483;42.620;25.394;2022-12-10T10:19:22;96236.47;;;13.63;81.76
52591;BME280;38483;42.620;25.394;2022-12-10T10:22:41;96229.94;;;13.57;82.33
52591;BME280;38483;42.620;25.394;2022-12-10T10:26:16;96233.97;;;13.74;81.90
52591;BME280;38483;42.620;25.394;2022-12-10T10:29:46;96159.47;;;13.37;81.99
52591;BME280;38483;42.620;25.394;2022-12-10T10:33:26;96060.25;;;12.94;81.59
52591;BME280;38483;42.620;25.394;2022-12-10T10:37:04;96107.84;;;13.07;82.39
52591;BME280;38483;42.620;25.394;2022-12-10T10:40:43;96206.06;;;13.76;82.85
52591;BME280;38483;42.620;25.394;2022-12-10T10:43:44;96203.28;;;13.90;82.95
52591;BME280;38483;42.620;25.394;2022-12-10T10:46:15;96202.72;;;13.98;81.95
52591;BME280;38483;42.620;25.394;2022-12-10T10:51:58;96193.66;;;14.03;82.17
52591;BME280;38483;42.620;25.394;2022-12-10T10:54:47;96183.78;;;14.19;81.67
52591;BME280;38483;42.620;25.394;2022-12-10T10:57:19;96174.03;;;14.34;81.69
52591;BME280;38483;42.620;25.394;2022-12-10T10:59:49;96176.06;;;14.41;81.01
52591;BME280;38483;42.620;25.394;2022-12-10T11:02:28;96184.25;;;14.59;81.01
52591;BME280;38483;42.620;25.394;2022-12-10T11:04:57;96160.09;;;14.22;81.44
52591;BME280;38483;42.620;25.394;2022-12-10T11:07:40;96174.88;;;14.45;80.60
52591;BME280;38483;42.620;25.394;2022-12-10T11:10:20;96179.22;;;14.68;80.83
52591;BME280;38483;42.620;25.394;2022-12-10T11:12:56;96136.28;;;14.39;80.04
52591;BME280;38483;42.620;25.394;2022-12-10T11:17:53;96162.50;;;14.82;80.05
52591;BME280;38483;42.620;25.394;2022-12-10T11:20:23;96161.69;;;14.71;79.95
52591;BME280;38483;42.620;25.394;2022-12-10T11:22:58;96161.22;;;14.77;80.02
52591;BME280;38483;42.620;25.394;2022-12-10T11:37:03;96137.28;;;14.94;79.82
52591;BME280;38483;42.620;25.394;2022-12-10T11:47:40;96155.75;;;15.24;78.88
52591;BME280;38483;42.620;25.394;2022-12-10T11:50:26;96093.78;;;15.05;78.26
52591;BME280;38483;42.620;25.394;2022-12-10T11:55:57;96078.75;;;14.76;79.40
52591;BME280;38483;42.620;25.394;2022-12-10T11:58:57;96128.97;;;15.11;79.94
52591;BME280;38483;42.620;25.394;2022-12-10T12:04:29;96128.50;;;15.28;78.86
52591;BME280;38483;42.620;25.394;2022-12-10T12:16:01;96090.47;;;15.03;79.56
52591;BME280;38483;42.620;25.394;2022-12-10T12:21:16;96041.94;;;14.69;80.58
52591;BME280;38483;42.620;25.394;2022-12-10T12:23:53;96072.25;;;14.81;80.89
52591;BME280;38483;42.620;25.394;2022-12-10T12:29:15;96057.31;;;14.83;81.08
52591;BME280;38483;42.620;25.394;2022-12-10T12:32:03;96065.59;;;14.88;80.92
52591;BME280;38483;42.620;25.394;2022-12-10T12:34:53;96057.19;;;14.85;81.51
52591;BME280;38483;42.620;25.394;2022-12-10T12:37:36;96064.38;;;14.92;81.39
52591;BME280;38483;42.620;25.394;2022-12-10T12:43:13;96055.16;;;14.88;81.73
52591;BME280;38483;42.620;25.394;2022-12-10T12:45:45;96053.03;;;14.82;81.57
52591;BME280;38483;42.620;25.394;2022-12-10T12:48:31;96071.97;;;14.84;81.78
52591;BME280;38483;42.620;25.394;2022-12-10T12:51:19;96069.03;;;14.66;82.85
52591;BME280;38483;42.620;25.394;2022-12-10T12:53:48;96067.16;;;14.68;82.80
52591;BME280;38483;42.620;25.394;2022-12-10T12:56:48;96075.91;;;14.56;83.68
52591;BME280;38483;42.620;25.394;2022-12-10T12:59:58;96079.22;;;14.58;84.32
52591;BME280;38483;42.620;25.394;2022-12-10T13:05:32;96077.56;;;14.68;83.66
52591;BME280;38483;42.620;25.394;2022-12-10T13:08:27;96077.22;;;14.73;83.62
52591;BME280;38483;42.620;25.394;2022-12-10T13:13:39;96082.53;;;14.60;83.89
52591;BME280;38483;42.620;25.394;2022-12-10T13:32:24;96040.59;;;14.41;84.60
52591;BME280;38483;42.620;25.394;2022-12-10T13:43:37;96061.22;;;14.33;85.34
52591;BME280;38483;42.620;25.394;2022-12-10T13:46:34;96057.38;;;14.26;85.37
52591;BME280;38483;42.620;25.394;2022-12-10T13:49:25;96068.91;;;14.35;85.08
52591;BME280;38483;42.620;25.394;2022-12-10T13:52:05;96080.88;;;14.37;85.30
52591;BME280;38483;42.620;25.394;2022-12-10T14:02:52;96050.50;;;14.25;85.71
52591;BME280;38483;42.620;25.394;2022-12-10T14:06:25;96045.53;;;14.22;86.09
52591;BME280;38483;42.620;25.394;2022-12-10T14:08:24;96038.19;;;14.05;86.24
52591;BME280;38483;42.620;25.394;2022-12-10T14:10:55;96040.06;;;14.03;87.43
52591;BME280;38483;42.620;25.394;2022-12-10T14:13:46;96042.69;;;14.03;87.09
52591;BME280;38483;42.620;25.394;2022-12-10T14:16:14;96016.59;;;13.92;88.08
52591;BME280;38483;42.620;25.394;2022-12-10T14:18:43;95999.19;;;13.81;88.28
52591;BME280;38483;42.620;25.394;2022-12-10T14:21:14;96004.41;;;13.81;88.82
52591;BME280;38483;42.620;25.394;2022-12-10T14:23:46;96005.97;;;13.60;89.20
52591;BME280;38483;42.620;25.394;2022-12-10T14:26:28;96021.75;;;13.70;89.47
52591;BME280;38483;42.620;25.394;2022-12-10T14:29:17;96007.53;;;13.63;89.33
52591;BME280;38483;42.620;25.394;2022-12-10T14:31:54;96021.44;;;13.74;90.07
52591;BME280;38483;42.620;25.394;2022-12-10T14:34:25;96006.09;;;13.59;90.50
52591;BME280;38483;42.620;25.394;2022-12-10T14:36:58;96010.59;;;13.57;90.63
52591;BME280;38483;42.620;25.394;2022-12-10T14:39:31;96005.19;;;13.60;90.41
52591;BME280;38483;42.620;25.394;2022-12-10T14:42:02;96006.56;;;13.53;90.66
52591;BME280;38483;42.620;25.394;2022-12-10T14:44:31;96012.16;;;13.59;89.98
52591;BME280;38483;42.620;25.394;2022-12-10T14:47:14;96004.28;;;13.48;90.26
52591;BME280;38483;42.620;25.394;2022-12-10T14:49:44;95983.34;;;13.39;90.17
52591;BME280;38483;42.620;25.394;2022-12-10T14:52:16;95987.50;;;13.41;90.47
52591;BME280;38483;42.620;25.394;2022-12-10T14:54:45;96005.19;;;13.36;91.22
52591;BME280;38483;42.620;25.394;2022-12-10T14:57:20;95986.63;;;13.30;90.78
52591;BME280;38483;42.620;25.394;2022-12-10T15:00:04;96000.13;;;13.35;91.20
52591;BME280;38483;42.620;25.394;2022-12-10T15:02:37;95990.44;;;13.37;90.76
52591;BME280;38483;42.620;25.394;2022-12-10T15:07:37;96005.53;;;13.32;90.32
52591;BME280;38483;42.620;25.394;2022-12-10T15:10:14;95968.84;;;13.13;90.95
52591;BME280;38483;42.620;25.394;2022-12-10T15:12:47;96003.72;;;13.21;91.72
52591;BME280;38483;42.620;25.394;2022-12-10T15:23:33;95980.94;;;12.88;93.49
52591;BME280;38483;42.620;25.394;2022-12-10T15:26:09;95976.72;;;12.87;93.35
52591;BME280;38483;42.620;25.394;2022-12-10T15:28:41;95980.66;;;12.80;94.21
52591;BME280;38483;42.620;25.394;2022-12-10T15:33:58;95965.97;;;12.68;95.03
52591;BME280;38483;42.620;25.394;2022-12-10T15:39:15;95974.75;;;12.78;94.63
52591;BME280;38483;42.620;25.394;2022-12-10T15:41:45;95969.34;;;12.81;93.48
52591;BME280;38483;42.620;25.394;2022-12-10T15:46:50;95958.31;;;12.78;92.75
52591;BME280;38483;42.620;25.394;2022-12-10T15:49:18;95920.97;;;12.44;93.90
52591;BME280;38483;42.620;25.394;2022-12-10T15:51:44;95956.88;;;12.74;93.94
52591;BME280;38483;42.620;25.394;2022-12-10T15:54:33;95959.16;;;12.78;92.79
52591;BME280;38483;42.620;25.394;2022-12-10T15:59:38;95948.06;;;12.53;91.43
52591;BME280;38483;42.620;25.394;2022-12-10T16:04:44;95966.25;;;12.76;90.71